PAT282 KRME-KSSC
Flight info
| Callsign | PAT282 |
|---|---|
| Flight time | 1h 53m |
| Altitude | 37000 |
| Route | RKA ARRKK Q812 STOMP SAX/N0286F100 V213 JOELL/N0373F160 V213 DIRMY/N0287F100 V213 RBV/N0477F380 CYN Q409 ESCHR RYFLE COPEL ULTRO |
| Aircraft | CL60/M-SBDE1E2E3FGHIJ1J4J5J7M3RWXYZ/LB1V1D1 |
Departure
| Time | 2026-05-08 02:53 |
|---|---|
| Airport | Griffiss International Airport (KRME) |
Arrival
| Time | 2026-05-08 04:46 |
|---|---|
| Airport | Shaw Air Force Base (KSSC) |
| Time | Latitude | Longitude | Altitude | Speed | Heading |
|---|---|---|---|---|---|
| 2026-05-08 02:47 | 43.22754 | -75.41176 | 478 ft | 0 kts | 89° |
| 2026-05-08 02:49 | 43.22755 | -75.41166 | 478 ft | 9 kts | 77° |
| 2026-05-08 02:50 | 43.22830 | -75.41080 | 478 ft | 17 kts | 87° |
| 2026-05-08 02:50 | 43.22834 | -75.40874 | 478 ft | 24 kts | 90° |
| 2026-05-08 02:50 | 43.22859 | -75.40633 | 478 ft | 25 kts | 44° |
| 2026-05-08 02:50 | 43.22911 | -75.40462 | 479 ft | 18 kts | 134° |
| 2026-05-08 02:51 | 43.22794 | -75.40297 | 477 ft | 22 kts | 135° |
| 2026-05-08 02:51 | 43.22657 | -75.40106 | 478 ft | 24 kts | 134° |
| 2026-05-08 02:51 | 43.22510 | -75.39899 | 476 ft | 27 kts | 134° |
| 2026-05-08 02:51 | 43.22346 | -75.39671 | 474 ft | 30 kts | 135° |
| 2026-05-08 02:52 | 43.22170 | -75.39418 | 472 ft | 22 kts | 131° |
| 2026-05-08 02:52 | 43.22184 | -75.39274 | 474 ft | 16 kts | 44° |
| 2026-05-08 02:52 | 43.22280 | -75.39173 | 483 ft | 13 kts | 4° |
| 2026-05-08 02:52 | 43.22413 | -75.39339 | 487 ft | 61 kts | 313° |
| 2026-05-08 02:53 | 43.23085 | -75.40284 | 484 ft | 167 kts | 314° |
| 2026-05-08 02:53 | 43.24131 | -75.41757 | 1196 ft | 193 kts | 315° |
| 2026-05-08 02:53 | 43.25205 | -75.43218 | 2266 ft | 209 kts | 315° |
| 2026-05-08 02:53 | 43.26355 | -75.44812 | 3231 ft | 225 kts | 314° |
| 2026-05-08 02:54 | 43.27517 | -75.46448 | 3595 ft | 224 kts | 314° |
| 2026-05-08 02:54 | 43.28695 | -75.48111 | 3604 ft | 220 kts | 314° |
| 2026-05-08 02:54 | 43.29829 | -75.49715 | 3600 ft | 217 kts | 314° |
| 2026-05-08 02:54 | 43.30987 | -75.51218 | 3589 ft | 215 kts | 328° |
| 2026-05-08 02:55 | 43.32496 | -75.51691 | 3578 ft | 218 kts | 9° |
| 2026-05-08 02:55 | 43.34766 | -75.47573 | 5770 ft | 276 kts | 91° |
| 2026-05-08 02:55 | 43.34142 | -75.44777 | 7291 ft | 285 kts | 125° |
| 2026-05-08 02:56 | 43.32598 | -75.42622 | 8685 ft | 293 kts | 146° |
| 2026-05-08 02:56 | 43.30470 | -75.41232 | 10037 ft | 301 kts | 167° |
| 2026-05-08 02:56 | 43.27910 | -75.40584 | 10593 ft | 340 kts | 175° |
| 2026-05-08 02:56 | 43.25118 | -75.40027 | 11600 ft | 359 kts | 175° |
| 2026-05-08 02:57 | 43.22204 | -75.39440 | 12833 ft | 368 kts | 176° |
| 2026-05-08 02:57 | 43.19254 | -75.38840 | 14055 ft | 375 kts | 175° |
| 2026-05-08 02:57 | 43.16248 | -75.38228 | 15261 ft | 379 kts | 176° |
| 2026-05-08 02:57 | 43.13348 | -75.37645 | 16380 ft | 383 kts | 177° |
| 2026-05-08 02:58 | 43.10459 | -75.37056 | 17428 ft | 387 kts | 177° |
| 2026-05-08 02:58 | 43.07549 | -75.36462 | 18432 ft | 390 kts | 178° |
| 2026-05-08 02:58 | 43.04552 | -75.35849 | 19449 ft | 391 kts | 178° |
| 2026-05-08 02:58 | 43.01585 | -75.35241 | 20414 ft | 393 kts | 178° |
| 2026-05-08 02:59 | 42.98688 | -75.34647 | 21319 ft | 394 kts | 179° |
| 2026-05-08 02:59 | 42.95773 | -75.34050 | 22133 ft | 397 kts | 179° |
| 2026-05-08 02:59 | 42.92816 | -75.33444 | 22885 ft | 400 kts | 180° |
| 2026-05-08 02:59 | 42.89769 | -75.32820 | 23627 ft | 403 kts | 180° |
| 2026-05-08 03:00 | 42.86969 | -75.32247 | 24287 ft | 406 kts | 180° |
| 2026-05-08 03:00 | 42.84036 | -75.31646 | 24938 ft | 408 kts | 180° |
| 2026-05-08 03:00 | 42.81117 | -75.31049 | 25571 ft | 411 kts | 181° |
| 2026-05-08 03:00 | 42.78152 | -75.30442 | 26181 ft | 413 kts | 181° |
| 2026-05-08 03:01 | 42.75205 | -75.29839 | 26759 ft | 415 kts | 181° |
| 2026-05-08 03:01 | 42.72258 | -75.29237 | 27270 ft | 419 kts | 181° |
| 2026-05-08 03:01 | 42.69262 | -75.28625 | 27744 ft | 423 kts | 181° |
| 2026-05-08 03:01 | 42.66238 | -75.28009 | 28204 ft | 426 kts | 182° |
| 2026-05-08 03:02 | 42.63233 | -75.27396 | 28634 ft | 429 kts | 182° |
| 2026-05-08 03:02 | 42.60139 | -75.26765 | 29057 ft | 432 kts | 182° |
| 2026-05-08 03:02 | 42.57090 | -75.26144 | 29469 ft | 434 kts | 182° |
| 2026-05-08 03:02 | 42.54083 | -75.25530 | 29951 ft | 434 kts | 182° |
| 2026-05-08 03:03 | 42.51064 | -75.24911 | 30479 ft | 432 kts | 182° |
| 2026-05-08 03:03 | 42.48020 | -75.24301 | 31007 ft | 428 kts | 184° |
| 2026-05-08 03:03 | 42.45038 | -75.24249 | 31517 ft | 408 kts | 197° |
| 2026-05-08 03:03 | 42.42195 | -75.24779 | 31977 ft | 403 kts | 199° |
| 2026-05-08 03:04 | 42.39350 | -75.25341 | 32404 ft | 403 kts | 199° |
| 2026-05-08 03:04 | 42.36544 | -75.25891 | 32784 ft | 403 kts | 199° |
| 2026-05-08 03:04 | 42.33737 | -75.26440 | 33139 ft | 403 kts | 199° |
| 2026-05-08 03:04 | 42.30919 | -75.26989 | 33479 ft | 404 kts | 199° |
| 2026-05-08 03:05 | 42.28102 | -75.27537 | 33769 ft | 404 kts | 199° |
| 2026-05-08 03:05 | 42.25275 | -75.28085 | 34065 ft | 403 kts | 198° |
| 2026-05-08 03:05 | 42.22473 | -75.28626 | 34361 ft | 403 kts | 198° |
| 2026-05-08 03:05 | 42.19692 | -75.29163 | 34652 ft | 402 kts | 197° |
| 2026-05-08 03:06 | 42.16894 | -75.29667 | 34938 ft | 403 kts | 195° |
| 2026-05-08 03:06 | 42.14063 | -75.29869 | 35198 ft | 409 kts | 189° |
| 2026-05-08 03:06 | 42.11177 | -75.29673 | 35440 ft | 417 kts | 184° |
| 2026-05-08 03:06 | 42.08277 | -75.29050 | 35668 ft | 425 kts | 178° |
| 2026-05-08 03:07 | 42.05391 | -75.27967 | 35873 ft | 435 kts | 171° |
| 2026-05-08 03:07 | 42.02591 | -75.26405 | 36062 ft | 445 kts | 164° |
| 2026-05-08 03:07 | 41.99881 | -75.24280 | 36242 ft | 458 kts | 156° |
| 2026-05-08 03:07 | 41.97311 | -75.21585 | 36409 ft | 467 kts | 150° |
| 2026-05-08 03:08 | 41.94798 | -75.18772 | 36583 ft | 468 kts | 150° |
| 2026-05-08 03:08 | 41.92291 | -75.15974 | 36755 ft | 469 kts | 151° |
| 2026-05-08 03:08 | 41.89763 | -75.13156 | 36904 ft | 471 kts | 151° |
| 2026-05-08 03:09 | 41.84640 | -75.07461 | 36903 ft | 483 kts | 151° |
| 2026-05-08 03:09 | 41.79391 | -75.01631 | 36911 ft | 492 kts | 150° |
| 2026-05-08 03:10 | 41.74090 | -74.95752 | 36911 ft | 500 kts | 150° |
| 2026-05-08 03:10 | 41.68283 | -74.89323 | 36909 ft | 506 kts | 150° |
| 2026-05-08 03:11 | 41.62051 | -74.82568 | 36908 ft | 502 kts | 155° |
| 2026-05-08 03:11 | 41.58714 | -74.79756 | 36908 ft | 490 kts | 162° |
| 2026-05-08 03:11 | 41.55176 | -74.77509 | 36909 ft | 479 kts | 168° |
| 2026-05-08 03:12 | 41.48199 | -74.74051 | 36910 ft | 475 kts | 171° |
| 2026-05-08 03:12 | 41.41132 | -74.70602 | 36910 ft | 476 kts | 171° |
| 2026-05-08 03:13 | 41.34127 | -74.67189 | 36910 ft | 476 kts | 171° |
| 2026-05-08 03:13 | 41.26973 | -74.63705 | 36908 ft | 477 kts | 171° |
| 2026-05-08 03:14 | 41.19778 | -74.60209 | 36902 ft | 477 kts | 171° |
| 2026-05-08 03:14 | 41.12656 | -74.56753 | 36900 ft | 477 kts | 171° |
| 2026-05-08 03:15 | 41.05467 | -74.53798 | 36896 ft | 461 kts | 180° |
| 2026-05-08 03:15 | 40.98350 | -74.52698 | 36900 ft | 453 kts | 185° |
| 2026-05-08 03:16 | 40.91938 | -74.51818 | 36903 ft | 454 kts | 184° |
| 2026-05-08 03:16 | 40.85612 | -74.50944 | 36894 ft | 454 kts | 185° |
| 2026-05-08 03:17 | 40.79248 | -74.50136 | 36890 ft | 453 kts | 185° |
| 2026-05-08 03:17 | 40.72929 | -74.49304 | 36896 ft | 453 kts | 185° |
| 2026-05-08 03:18 | 40.66664 | -74.48467 | 36898 ft | 453 kts | 185° |
| 2026-05-08 03:18 | 40.60319 | -74.47621 | 36893 ft | 453 kts | 185° |
| 2026-05-08 03:19 | 40.54039 | -74.46783 | 36889 ft | 454 kts | 185° |
| 2026-05-08 03:19 | 40.47740 | -74.45941 | 36885 ft | 454 kts | 185° |
| 2026-05-08 03:20 | 40.41442 | -74.45105 | 36878 ft | 454 kts | 185° |
| 2026-05-08 03:20 | 40.35193 | -74.44972 | 36877 ft | 437 kts | 196° |
| 2026-05-08 03:21 | 40.29333 | -74.46546 | 36880 ft | 427 kts | 203° |
| 2026-05-08 03:21 | 40.23569 | -74.48386 | 36889 ft | 430 kts | 200° |
| 2026-05-08 03:22 | 40.17477 | -74.48983 | 36899 ft | 450 kts | 187° |
| 2026-05-08 03:22 | 40.11153 | -74.48030 | 36897 ft | 456 kts | 183° |
| 2026-05-08 03:23 | 40.04739 | -74.46980 | 36898 ft | 456 kts | 183° |
| 2026-05-08 03:23 | 39.98230 | -74.45915 | 36902 ft | 456 kts | 183° |
| 2026-05-08 03:24 | 39.91550 | -74.44940 | 36904 ft | 448 kts | 188° |
| 2026-05-08 03:24 | 39.88356 | -74.45047 | 36902 ft | 437 kts | 195° |
| 2026-05-08 03:24 | 39.85147 | -74.45732 | 36902 ft | 427 kts | 202° |
| 2026-05-08 03:25 | 39.79341 | -74.48579 | 36900 ft | 410 kts | 216° |
| 2026-05-08 03:25 | 39.74549 | -74.52884 | 36904 ft | 399 kts | 226° |
| 2026-05-08 03:26 | 39.70500 | -74.58086 | 36907 ft | 397 kts | 230° |
| 2026-05-08 03:26 | 39.66437 | -74.63471 | 36910 ft | 397 kts | 231° |
| 2026-05-08 03:27 | 39.62389 | -74.68823 | 36911 ft | 397 kts | 231° |
| 2026-05-08 03:27 | 39.58313 | -74.74202 | 36912 ft | 396 kts | 231° |
| 2026-05-08 03:28 | 39.54301 | -74.79483 | 36913 ft | 396 kts | 231° |
| 2026-05-08 03:28 | 39.50236 | -74.84824 | 36914 ft | 396 kts | 231° |
| 2026-05-08 03:29 | 39.46185 | -74.90135 | 36915 ft | 396 kts | 231° |
| 2026-05-08 03:29 | 39.42123 | -74.95451 | 36916 ft | 396 kts | 231° |
| 2026-05-08 03:30 | 39.35961 | -75.03497 | 36919 ft | 396 kts | 231° |
| 2026-05-08 03:31 | 39.27414 | -75.14299 | 36920 ft | 398 kts | 229° |
| 2026-05-08 03:32 | 39.20718 | -75.22127 | 36920 ft | 398 kts | 229° |
| 2026-05-08 03:32 | 39.16348 | -75.27227 | 36922 ft | 398 kts | 229° |
| 2026-05-08 03:33 | 39.11983 | -75.32313 | 36919 ft | 397 kts | 229° |
| 2026-05-08 03:33 | 39.07638 | -75.37367 | 36916 ft | 398 kts | 229° |
| 2026-05-08 03:34 | 39.02745 | -75.41817 | 36918 ft | 411 kts | 218° |
| 2026-05-08 03:34 | 38.97062 | -75.44600 | 36918 ft | 431 kts | 204° |
| 2026-05-08 03:34 | 38.93949 | -75.45225 | 36918 ft | 442 kts | 198° |
| 2026-05-08 03:35 | 38.90742 | -75.45673 | 36916 ft | 443 kts | 198° |
| 2026-05-08 03:35 | 38.84000 | -75.46616 | 36921 ft | 443 kts | 198° |
| 2026-05-08 03:36 | 38.76614 | -75.47643 | 36932 ft | 444 kts | 199° |
| 2026-05-08 03:36 | 38.69904 | -75.48570 | 36938 ft | 444 kts | 199° |
| 2026-05-08 03:37 | 38.63187 | -75.49487 | 36942 ft | 444 kts | 199° |
| 2026-05-08 03:37 | 38.56537 | -75.50392 | 36944 ft | 444 kts | 199° |
| 2026-05-08 03:38 | 38.49922 | -75.51291 | 36946 ft | 444 kts | 199° |
| 2026-05-08 03:38 | 38.43250 | -75.52195 | 36947 ft | 444 kts | 199° |
| 2026-05-08 03:39 | 38.36605 | -75.53393 | 36944 ft | 431 kts | 207° |
| 2026-05-08 03:39 | 38.33516 | -75.54667 | 36944 ft | 419 kts | 214° |
| 2026-05-08 03:39 | 38.30660 | -75.56404 | 36944 ft | 409 kts | 220° |
| 2026-05-08 03:40 | 38.25497 | -75.60733 | 36946 ft | 402 kts | 225° |
| 2026-05-08 03:40 | 38.20337 | -75.65244 | 36948 ft | 403 kts | 225° |
| 2026-05-08 03:41 | 38.15194 | -75.69728 | 36949 ft | 404 kts | 225° |
| 2026-05-08 03:41 | 38.10023 | -75.74224 | 36950 ft | 404 kts | 225° |
| 2026-05-08 03:42 | 38.04767 | -75.78783 | 36952 ft | 403 kts | 225° |
| 2026-05-08 03:42 | 37.99481 | -75.83360 | 36953 ft | 403 kts | 225° |
| 2026-05-08 03:43 | 37.94257 | -75.87872 | 36953 ft | 404 kts | 225° |
| 2026-05-08 03:43 | 37.89045 | -75.92366 | 36954 ft | 404 kts | 225° |
| 2026-05-08 03:44 | 37.83822 | -75.96860 | 36955 ft | 404 kts | 225° |
| 2026-05-08 03:44 | 37.78666 | -76.01289 | 36955 ft | 403 kts | 225° |
| 2026-05-08 03:45 | 37.73457 | -76.05755 | 36955 ft | 403 kts | 225° |
| 2026-05-08 03:45 | 37.68325 | -76.10147 | 36956 ft | 403 kts | 225° |
| 2026-05-08 03:46 | 37.63168 | -76.14554 | 36956 ft | 403 kts | 225° |
| 2026-05-08 03:46 | 37.58054 | -76.18923 | 36959 ft | 403 kts | 225° |
| 2026-05-08 03:47 | 37.53020 | -76.23227 | 36962 ft | 403 kts | 225° |
| 2026-05-08 03:47 | 37.47970 | -76.27537 | 36966 ft | 403 kts | 225° |
| 2026-05-08 03:48 | 37.42906 | -76.31851 | 36968 ft | 403 kts | 225° |
| 2026-05-08 03:48 | 37.37886 | -76.36120 | 36969 ft | 403 kts | 225° |
| 2026-05-08 03:49 | 37.32873 | -76.40376 | 36968 ft | 402 kts | 225° |
| 2026-05-08 03:49 | 37.27867 | -76.44620 | 36965 ft | 401 kts | 225° |
| 2026-05-08 03:50 | 37.22907 | -76.48817 | 36964 ft | 401 kts | 225° |
| 2026-05-08 03:50 | 37.18157 | -76.52831 | 36965 ft | 401 kts | 225° |
| 2026-05-08 03:51 | 37.13404 | -76.56841 | 36965 ft | 400 kts | 226° |
| 2026-05-08 03:51 | 37.08625 | -76.60867 | 36964 ft | 400 kts | 226° |
| 2026-05-08 03:52 | 37.03891 | -76.64849 | 36964 ft | 400 kts | 226° |
| 2026-05-08 03:52 | 36.99164 | -76.68819 | 36963 ft | 401 kts | 225° |
| 2026-05-08 03:53 | 36.94450 | -76.72770 | 36965 ft | 400 kts | 225° |
| 2026-05-08 03:53 | 36.89766 | -76.76691 | 36967 ft | 399 kts | 225° |
| 2026-05-08 03:54 | 36.85085 | -76.80604 | 36974 ft | 399 kts | 225° |
| 2026-05-08 03:54 | 36.80391 | -76.84522 | 36982 ft | 399 kts | 226° |
| 2026-05-08 03:55 | 36.75546 | -76.88560 | 36985 ft | 399 kts | 226° |
| 2026-05-08 03:55 | 36.70619 | -76.92660 | 36988 ft | 399 kts | 226° |
| 2026-05-08 03:56 | 36.65620 | -76.96813 | 36990 ft | 399 kts | 226° |
| 2026-05-08 03:56 | 36.60600 | -77.00977 | 36991 ft | 399 kts | 226° |
| 2026-05-08 03:57 | 36.55549 | -77.05159 | 36990 ft | 398 kts | 226° |
| 2026-05-08 03:57 | 36.50513 | -77.09322 | 36990 ft | 397 kts | 226° |
| 2026-05-08 03:58 | 36.45435 | -77.13513 | 36993 ft | 397 kts | 226° |
| 2026-05-08 03:58 | 36.40362 | -77.17696 | 36993 ft | 397 kts | 226° |
| 2026-05-08 03:59 | 36.35331 | -77.21835 | 36993 ft | 397 kts | 226° |
| 2026-05-08 03:59 | 36.30277 | -77.26093 | 36991 ft | 392 kts | 229° |
| 2026-05-08 04:00 | 36.25580 | -77.30677 | 36992 ft | 390 kts | 230° |
| 2026-05-08 04:00 | 36.20926 | -77.35225 | 36992 ft | 389 kts | 230° |
| 2026-05-08 04:01 | 36.16224 | -77.39808 | 36991 ft | 389 kts | 230° |
| 2026-05-08 04:01 | 36.11402 | -77.44495 | 36991 ft | 389 kts | 230° |
| 2026-05-08 04:02 | 36.06647 | -77.49110 | 36991 ft | 388 kts | 230° |
| 2026-05-08 04:02 | 36.01850 | -77.53754 | 36991 ft | 388 kts | 230° |
| 2026-05-08 04:03 | 35.97082 | -77.58363 | 36991 ft | 388 kts | 230° |
| 2026-05-08 04:03 | 35.89971 | -77.65221 | 36991 ft | 387 kts | 230° |
| 2026-05-08 04:04 | 35.85315 | -77.69702 | 36990 ft | 389 kts | 230° |
| 2026-05-08 04:04 | 35.80605 | -77.74228 | 36991 ft | 389 kts | 230° |
| 2026-05-08 04:05 | 35.75940 | -77.78702 | 36995 ft | 389 kts | 230° |
| 2026-05-08 04:05 | 35.71331 | -77.83115 | 36997 ft | 388 kts | 230° |
| 2026-05-08 04:06 | 35.66737 | -77.87508 | 36998 ft | 388 kts | 230° |
| 2026-05-08 04:06 | 35.62183 | -77.91856 | 36998 ft | 388 kts | 230° |
| 2026-05-08 04:07 | 35.57531 | -77.96291 | 36999 ft | 388 kts | 230° |
| 2026-05-08 04:07 | 35.52988 | -78.00616 | 37000 ft | 388 kts | 230° |
| 2026-05-08 04:08 | 35.48362 | -78.05013 | 37000 ft | 389 kts | 230° |
| 2026-05-08 04:08 | 35.43716 | -78.09422 | 37000 ft | 389 kts | 230° |
| 2026-05-08 04:09 | 35.39047 | -78.13847 | 37000 ft | 389 kts | 230° |
| 2026-05-08 04:09 | 35.34338 | -78.18301 | 36998 ft | 389 kts | 230° |
| 2026-05-08 04:10 | 35.29648 | -78.22734 | 36998 ft | 389 kts | 229° |
| 2026-05-08 04:10 | 35.24884 | -78.27228 | 37001 ft | 390 kts | 229° |
| 2026-05-08 04:11 | 35.20148 | -78.31690 | 37001 ft | 390 kts | 229° |
| 2026-05-08 04:11 | 35.15456 | -78.36104 | 37001 ft | 391 kts | 229° |
| 2026-05-08 04:12 | 35.10693 | -78.40578 | 37002 ft | 391 kts | 229° |
| 2026-05-08 04:12 | 35.05866 | -78.45105 | 37004 ft | 392 kts | 229° |
| 2026-05-08 04:13 | 35.00976 | -78.49685 | 37008 ft | 392 kts | 229° |
| 2026-05-08 04:13 | 34.96105 | -78.54239 | 37010 ft | 393 kts | 229° |
| 2026-05-08 04:14 | 34.91177 | -78.58839 | 37008 ft | 394 kts | 229° |
| 2026-05-08 04:14 | 34.86351 | -78.63337 | 37007 ft | 394 kts | 229° |
| 2026-05-08 04:15 | 34.81419 | -78.67927 | 37006 ft | 396 kts | 229° |
| 2026-05-08 04:15 | 34.76456 | -78.72539 | 37004 ft | 396 kts | 229° |
| 2026-05-08 04:16 | 34.71560 | -78.77078 | 36534 ft | 390 kts | 229° |
| 2026-05-08 04:16 | 34.69154 | -78.79298 | 35980 ft | 382 kts | 229° |
| 2026-05-08 04:16 | 34.66775 | -78.81496 | 35408 ft | 374 kts | 229° |
| 2026-05-08 04:17 | 34.64457 | -78.83636 | 34845 ft | 368 kts | 229° |
| 2026-05-08 04:17 | 34.62190 | -78.85729 | 34252 ft | 361 kts | 229° |
| 2026-05-08 04:17 | 34.59954 | -78.87791 | 33759 ft | 357 kts | 229° |
| 2026-05-08 04:17 | 34.57674 | -78.89905 | 33225 ft | 361 kts | 229° |
| 2026-05-08 04:18 | 34.55391 | -78.92047 | 32669 ft | 359 kts | 231° |
| 2026-05-08 04:18 | 34.53411 | -78.94473 | 32075 ft | 348 kts | 239° |
| 2026-05-08 04:18 | 34.51904 | -78.97217 | 31544 ft | 341 kts | 248° |
| 2026-05-08 04:18 | 34.50835 | -79.00260 | 31081 ft | 338 kts | 256° |
| 2026-05-08 04:19 | 34.50258 | -79.03332 | 30923 ft | 336 kts | 262° |
| 2026-05-08 04:19 | 34.50035 | -79.06538 | 30803 ft | 335 kts | 268° |
| 2026-05-08 04:19 | 34.49998 | -79.09773 | 30305 ft | 335 kts | 269° |
| 2026-05-08 04:19 | 34.49969 | -79.13000 | 29970 ft | 335 kts | 269° |
| 2026-05-08 04:20 | 34.49910 | -79.19459 | 29994 ft | 345 kts | 269° |
| 2026-05-08 04:20 | 34.49840 | -79.25540 | 30015 ft | 352 kts | 269° |
| 2026-05-08 04:21 | 34.49770 | -79.31586 | 30007 ft | 354 kts | 269° |
| 2026-05-08 04:21 | 34.49696 | -79.37648 | 29999 ft | 353 kts | 269° |
| 2026-05-08 04:22 | 34.49620 | -79.43638 | 30004 ft | 352 kts | 269° |
| 2026-05-08 04:22 | 34.49539 | -79.49757 | 30008 ft | 352 kts | 269° |
| 2026-05-08 04:23 | 34.49455 | -79.55810 | 30010 ft | 353 kts | 269° |
| 2026-05-08 04:23 | 34.49347 | -79.61861 | 30012 ft | 353 kts | 266° |
| 2026-05-08 04:24 | 34.48809 | -79.64798 | 30022 ft | 357 kts | 253° |
| 2026-05-08 04:24 | 34.47487 | -79.67645 | 30023 ft | 367 kts | 243° |
| 2026-05-08 04:24 | 34.44515 | -79.72893 | 30021 ft | 367 kts | 243° |
| 2026-05-08 04:25 | 34.41466 | -79.78265 | 30021 ft | 367 kts | 243° |
| 2026-05-08 04:25 | 34.38420 | -79.83620 | 30022 ft | 368 kts | 243° |
| 2026-05-08 04:26 | 34.36268 | -79.89477 | 30018 ft | 357 kts | 258° |
| 2026-05-08 04:26 | 34.34817 | -79.96204 | 30022 ft | 358 kts | 258° |
| 2026-05-08 04:27 | 34.33357 | -80.02933 | 30021 ft | 359 kts | 258° |
| 2026-05-08 04:27 | 34.31903 | -80.09590 | 30017 ft | 360 kts | 258° |
| 2026-05-08 04:28 | 34.30443 | -80.16248 | 30012 ft | 361 kts | 258° |
| 2026-05-08 04:28 | 34.28338 | -80.22638 | 30004 ft | 371 kts | 244° |
| 2026-05-08 04:29 | 34.26683 | -80.25664 | 29625 ft | 376 kts | 243° |
| 2026-05-08 04:29 | 34.25018 | -80.28697 | 29092 ft | 374 kts | 243° |
| 2026-05-08 04:29 | 34.23364 | -80.31703 | 28525 ft | 368 kts | 243° |
| 2026-05-08 04:29 | 34.21765 | -80.34607 | 27962 ft | 363 kts | 244° |
| 2026-05-08 04:30 | 34.20154 | -80.37529 | 27380 ft | 358 kts | 244° |
| 2026-05-08 04:30 | 34.18578 | -80.40385 | 26853 ft | 352 kts | 244° |
| 2026-05-08 04:30 | 34.16994 | -80.43259 | 26316 ft | 352 kts | 244° |
| 2026-05-08 04:30 | 34.15425 | -80.46103 | 25781 ft | 350 kts | 244° |
| 2026-05-08 04:31 | 34.13856 | -80.48943 | 25251 ft | 349 kts | 244° |
| 2026-05-08 04:31 | 34.12305 | -80.51749 | 24706 ft | 347 kts | 243° |
| 2026-05-08 04:31 | 34.10750 | -80.54559 | 24177 ft | 345 kts | 243° |
| 2026-05-08 04:31 | 34.09205 | -80.57349 | 23635 ft | 343 kts | 243° |
| 2026-05-08 04:32 | 34.07655 | -80.60145 | 23101 ft | 340 kts | 243° |
| 2026-05-08 04:32 | 34.06126 | -80.62901 | 22573 ft | 338 kts | 243° |
| 2026-05-08 04:32 | 34.04630 | -80.65595 | 22057 ft | 337 kts | 243° |
| 2026-05-08 04:32 | 34.03138 | -80.68283 | 21550 ft | 336 kts | 243° |
| 2026-05-08 04:33 | 34.01604 | -80.71042 | 21020 ft | 334 kts | 243° |
| 2026-05-08 04:33 | 34.00103 | -80.73737 | 20499 ft | 331 kts | 243° |
| 2026-05-08 04:33 | 33.98612 | -80.76416 | 19983 ft | 329 kts | 243° |
| 2026-05-08 04:33 | 33.97137 | -80.79063 | 19480 ft | 327 kts | 243° |
| 2026-05-08 04:34 | 33.95670 | -80.81693 | 18978 ft | 325 kts | 243° |
| 2026-05-08 04:34 | 33.94192 | -80.84343 | 18481 ft | 324 kts | 243° |
| 2026-05-08 04:34 | 33.92593 | -80.86764 | 18000 ft | 332 kts | 231° |
| 2026-05-08 04:34 | 33.90540 | -80.88784 | 17486 ft | 335 kts | 228° |
| 2026-05-08 04:35 | 33.88447 | -80.90647 | 16979 ft | 339 kts | 222° |
| 2026-05-08 04:35 | 33.85984 | -80.91987 | 16444 ft | 353 kts | 208° |
| 2026-05-08 04:35 | 33.83377 | -80.92535 | 15926 ft | 369 kts | 194° |
| 2026-05-08 04:35 | 33.80600 | -80.92194 | 15387 ft | 389 kts | 176° |
| 2026-05-08 04:36 | 33.77992 | -80.90781 | 14848 ft | 408 kts | 158° |
| 2026-05-08 04:36 | 33.75559 | -80.88868 | 14411 ft | 406 kts | 156° |
| 2026-05-08 04:36 | 33.73267 | -80.86838 | 13938 ft | 407 kts | 144° |
| 2026-05-08 04:36 | 33.71562 | -80.84112 | 13430 ft | 411 kts | 125° |
| 2026-05-08 04:37 | 33.70451 | -80.80947 | 12862 ft | 405 kts | 109° |
| 2026-05-08 04:37 | 33.69989 | -80.77606 | 12054 ft | 400 kts | 95° |
| 2026-05-08 04:37 | 33.70089 | -80.74204 | 9837 ft | 428 kts | 78° |
| 2026-05-08 04:37 | 33.71022 | -80.70859 | 8156 ft | 422 kts | 59° |
| 2026-05-08 04:38 | 33.72670 | -80.68105 | 7180 ft | 387 kts | 39° |
| 2026-05-08 04:38 | 33.74587 | -80.66044 | 6534 ft | 360 kts | 34° |
| 2026-05-08 04:38 | 33.76632 | -80.64091 | 5486 ft | 345 kts | 29° |
| 2026-05-08 04:38 | 33.78690 | -80.62367 | 5145 ft | 315 kts | 33° |
| 2026-05-08 04:39 | 33.80125 | -80.60162 | 5118 ft | 302 kts | 66° |
| 2026-05-08 04:39 | 33.80402 | -80.57633 | 5109 ft | 283 kts | 100° |
| 2026-05-08 04:39 | 33.79620 | -80.55510 | 5074 ft | 253 kts | 135° |
| 2026-05-08 04:39 | 33.78238 | -80.54198 | 4541 ft | 247 kts | 162° |
| 2026-05-08 04:40 | 33.76550 | -80.53675 | 3969 ft | 240 kts | 185° |
| 2026-05-08 04:40 | 33.74868 | -80.53857 | 3571 ft | 234 kts | 195° |
| 2026-05-08 04:40 | 33.73376 | -80.54732 | 3137 ft | 224 kts | 231° |
| 2026-05-08 04:40 | 33.72732 | -80.56509 | 2669 ft | 217 kts | 272° |
| 2026-05-08 04:41 | 33.73309 | -80.58367 | 2190 ft | 214 kts | 316° |
| 2026-05-08 04:41 | 33.74620 | -80.59386 | 2014 ft | 212 kts | 338° |
| 2026-05-08 04:41 | 33.76159 | -80.60308 | 1990 ft | 217 kts | 317° |
| 2026-05-08 04:41 | 33.77037 | -80.62143 | 2004 ft | 220 kts | 297° |
| 2026-05-08 04:42 | 33.78201 | -80.63647 | 1984 ft | 212 kts | 337° |
| 2026-05-08 04:42 | 33.79898 | -80.63837 | 1995 ft | 213 kts | 14° |
| 2026-05-08 04:42 | 33.81312 | -80.62701 | 1997 ft | 219 kts | 52° |
| 2026-05-08 04:42 | 33.82105 | -80.60917 | 1998 ft | 223 kts | 61° |
| 2026-05-08 04:43 | 33.82989 | -80.59161 | 1987 ft | 219 kts | 39° |
| 2026-05-08 04:43 | 33.84382 | -80.58035 | 1996 ft | 218 kts | 34° |
| 2026-05-08 04:43 | 33.85781 | -80.56792 | 1996 ft | 213 kts | 33° |
| 2026-05-08 04:43 | 33.87095 | -80.55681 | 1987 ft | 195 kts | 32° |
| 2026-05-08 04:44 | 33.88333 | -80.54647 | 1917 ft | 191 kts | 32° |
| 2026-05-08 04:44 | 33.89467 | -80.53702 | 1697 ft | 165 kts | 32° |
| 2026-05-08 04:44 | 33.90417 | -80.52908 | 1498 ft | 136 kts | 32° |
| 2026-05-08 04:44 | 33.91217 | -80.52245 | 1345 ft | 124 kts | 32° |
| 2026-05-08 04:45 | 33.92024 | -80.51580 | 1151 ft | 122 kts | 32° |
| 2026-05-08 04:45 | 33.92802 | -80.50937 | 1003 ft | 121 kts | 33° |
| 2026-05-08 04:45 | 33.93581 | -80.50291 | 831 ft | 121 kts | 33° |
| 2026-05-08 04:45 | 33.94318 | -80.49680 | 680 ft | 120 kts | 33° |
| 2026-05-08 04:46 | 33.95042 | -80.49079 | 522 ft | 117 kts | 33° |
| 2026-05-08 04:46 | 33.95748 | -80.48493 | 367 ft | 116 kts | 33° |
| 2026-05-08 04:46 | 33.96435 | -80.47924 | 250 ft | 108 kts | 33° |
| 2026-05-08 04:46 | 33.96993 | -80.47463 | 241 ft | 46 kts | 34° |
| 2026-05-08 04:47 | 33.97216 | -80.47447 | 245 ft | 31 kts | 349° |
| 2026-05-08 04:47 | 33.97380 | -80.47472 | 249 ft | 13 kts | 323° |
| 2026-05-08 04:47 | 33.97448 | -80.47565 | 252 ft | 14 kts | 5° |
| 2026-05-08 04:47 | 33.97467 | -80.47482 | 250 ft | 0 kts | 124° |
| 2026-05-08 04:48 | 33.97465 | -80.47479 | 250 ft | 0 kts | 124° |